sensor_id;sensor_type;location;lat;lon;timestamp;pressure;altitude;pressure_sealevel;temperature;humidity
6096;BME280;25081;42.698;23.298;2023-03-01T00:02:04;95786.44;;;5.48;93.65
6096;BME280;25081;42.698;23.298;2023-03-01T00:04:14;95774.86;;;5.49;93.62
6096;BME280;25081;42.698;23.298;2023-03-01T00:06:26;95761.50;;;5.46;93.72
6096;BME280;25081;42.698;23.298;2023-03-01T00:08:36;95757.85;;;5.48;93.70
6096;BME280;25081;42.698;23.298;2023-03-01T00:10:46;95761.49;;;5.51;93.28
6096;BME280;25081;42.698;23.298;2023-03-01T00:12:57;95765.78;;;5.52;93.42
6096;BME280;25081;42.698;23.298;2023-03-01T00:15:09;95758.67;;;5.52;93.26
6096;BME280;25081;42.698;23.298;2023-03-01T00:17:19;95753.02;;;5.55;93.13
6096;BME280;25081;42.698;23.298;2023-03-01T00:19:30;95753.42;;;5.44;93.10
6096;BME280;25081;42.698;23.298;2023-03-01T00:21:40;95745.81;;;5.45;93.18
6096;BME280;25081;42.698;23.298;2023-03-01T00:23:51;95744.67;;;5.39;93.36
6096;BME280;25081;42.698;23.298;2023-03-01T00:26:01;95747.82;;;5.39;93.00
6096;BME280;25081;42.698;23.298;2023-03-01T00:28:12;95744.03;;;5.37;92.96
6096;BME280;25081;42.698;23.298;2023-03-01T00:30:22;95735.88;;;5.47;92.77
6096;BME280;25081;42.698;23.298;2023-03-01T00:32:33;95732.95;;;5.42;92.90
6096;BME280;25081;42.698;23.298;2023-03-01T00:34:43;95729.12;;;5.44;92.68
6096;BME280;25081;42.698;23.298;2023-03-01T00:36:54;95723.70;;;5.42;92.60
6096;BME280;25081;42.698;23.298;2023-03-01T00:39:07;95726.34;;;5.38;92.41
6096;BME280;25081;42.698;23.298;2023-03-01T00:41:16;95729.49;;;5.37;92.73
6096;BME280;25081;42.698;23.298;2023-03-01T00:43:26;95714.99;;;5.33;93.10
6096;BME280;25081;42.698;23.298;2023-03-01T00:45:36;95715.67;;;5.27;92.95
6096;BME280;25081;42.698;23.298;2023-03-01T00:47:47;95718.36;;;5.19;93.54
6096;BME280;25081;42.698;23.298;2023-03-01T00:49:57;95720.18;;;5.23;93.36
6096;BME280;25081;42.698;23.298;2023-03-01T00:52:08;95718.00;;;5.26;93.11
6096;BME280;25081;42.698;23.298;2023-03-01T00:54:18;95720.36;;;5.17;93.25
6096;BME280;25081;42.698;23.298;2023-03-01T00:56:29;95722.05;;;5.10;93.80
6096;BME280;25081;42.698;23.298;2023-03-01T00:58:40;95713.61;;;5.10;93.77
6096;BME280;25081;42.698;23.298;2023-03-01T01:00:50;95714.83;;;5.04;94.07
6096;BME280;25081;42.698;23.298;2023-03-01T01:03:00;95714.33;;;5.04;94.29
6096;BME280;25081;42.698;23.298;2023-03-01T01:05:11;95713.30;;;5.09;93.95
6096;BME280;25081;42.698;23.298;2023-03-01T01:07:21;95725.19;;;5.13;93.79
6096;BME280;25081;42.698;23.298;2023-03-01T01:09:32;95723.19;;;5.11;93.65
6096;BME280;25081;42.698;23.298;2023-03-01T01:11:43;95718.26;;;5.08;93.82
6096;BME280;25081;42.698;23.298;2023-03-01T01:13:53;95729.97;;;5.10;93.70
6096;BME280;25081;42.698;23.298;2023-03-01T01:16:04;95721.55;;;5.10;93.21
6096;BME280;25081;42.698;23.298;2023-03-01T01:18:15;95723.89;;;5.05;93.20
6096;BME280;25081;42.698;23.298;2023-03-01T01:20:25;95721.55;;;5.10;93.26
6096;BME280;25081;42.698;23.298;2023-03-01T01:22:36;95711.47;;;5.10;93.13
6096;BME280;25081;42.698;23.298;2023-03-01T01:24:46;95717.58;;;5.14;93.12
6096;BME280;25081;42.698;23.298;2023-03-01T01:26:56;95708.55;;;5.05;93.06
6096;BME280;25081;42.698;23.298;2023-03-01T01:29:07;95715.47;;;5.06;92.99
6096;BME280;25081;42.698;23.298;2023-03-01T01:31:17;95711.69;;;5.04;92.77
6096;BME280;25081;42.698;23.298;2023-03-01T01:33:28;95718.61;;;5.01;93.10
6096;BME280;25081;42.698;23.298;2023-03-01T01:35:38;95719.61;;;5.00;93.05
6096;BME280;25081;42.698;23.298;2023-03-01T01:37:49;95719.29;;;4.99;93.02
6096;BME280;25081;42.698;23.298;2023-03-01T01:40:00;95727.36;;;5.02;92.46
6096;BME280;25081;42.698;23.298;2023-03-01T01:42:13;95735.43;;;5.12;91.81
6096;BME280;25081;42.698;23.298;2023-03-01T01:44:24;95743.71;;;5.05;91.83
6096;BME280;25081;42.698;23.298;2023-03-01T01:46:35;95739.89;;;5.08;91.77
6096;BME280;25081;42.698;23.298;2023-03-01T01:48:46;95736.08;;;5.10;91.40
6096;BME280;25081;42.698;23.298;2023-03-01T01:50:57;95737.40;;;5.10;91.14
6096;BME280;25081;42.698;23.298;2023-03-01T01:53:08;95732.28;;;5.13;90.96
6096;BME280;25081;42.698;23.298;2023-03-01T01:55:18;95733.28;;;5.12;90.71
6096;BME280;25081;42.698;23.298;2023-03-01T01:57:30;95730.50;;;5.01;90.63
6096;BME280;25081;42.698;23.298;2023-03-01T01:59:39;95723.55;;;5.08;90.66
6096;BME280;25081;42.698;23.298;2023-03-01T02:01:50;95726.19;;;5.08;90.30
6096;BME280;25081;42.698;23.298;2023-03-01T02:04:00;95717.91;;;5.11;89.88
6096;BME280;25081;42.698;23.298;2023-03-01T02:06:15;95720.90;;;5.12;89.19
6096;BME280;25081;42.698;23.298;2023-03-01T02:08:25;95709.79;;;5.17;89.08
6096;BME280;25081;42.698;23.298;2023-03-01T02:10:35;95707.28;;;5.24;88.30
6096;BME280;25081;42.698;23.298;2023-03-01T02:12:46;95710.53;;;5.30;87.77
6096;BME280;25081;42.698;23.298;2023-03-01T02:14:56;95695.71;;;5.25;87.42
6096;BME280;25081;42.698;23.298;2023-03-01T02:17:06;95697.89;;;5.21;87.36
6096;BME280;25081;42.698;23.298;2023-03-01T02:19:20;95700.19;;;5.20;87.25
6096;BME280;25081;42.698;23.298;2023-03-01T02:21:35;95688.29;;;5.20;87.17
6096;BME280;25081;42.698;23.298;2023-03-01T02:23:44;95691.42;;;5.24;86.91
6096;BME280;25081;42.698;23.298;2023-03-01T02:25:55;95689.89;;;5.29;86.71
6096;BME280;25081;42.698;23.298;2023-03-01T02:28:08;95693.35;;;5.30;86.53
6096;BME280;25081;42.698;23.298;2023-03-01T02:30:18;95688.88;;;5.34;86.39
6096;BME280;25081;42.698;23.298;2023-03-01T02:32:28;95699.09;;;5.37;86.30
6096;BME280;25081;42.698;23.298;2023-03-01T02:34:39;95702.05;;;5.38;86.19
6096;BME280;25081;42.698;23.298;2023-03-01T02:36:51;95693.80;;;5.37;86.02
6096;BME280;25081;42.698;23.298;2023-03-01T02:39:00;95708.66;;;5.38;86.13
6096;BME280;25081;42.698;23.298;2023-03-01T02:41:11;95707.78;;;5.23;86.90
6096;BME280;25081;42.698;23.298;2023-03-01T02:43:22;95716.08;;;5.16;87.39
6096;BME280;25081;42.698;23.298;2023-03-01T02:45:32;95710.97;;;5.14;87.80
6096;BME280;25081;42.698;23.298;2023-03-01T02:47:42;95708.00;;;5.13;88.15
6096;BME280;25081;42.698;23.298;2023-03-01T02:49:53;95711.89;;;5.26;87.90
6096;BME280;25081;42.698;23.298;2023-03-01T02:52:14;95707.78;;;5.23;88.14
6096;BME280;25081;42.698;23.298;2023-03-01T02:54:24;95705.97;;;5.20;88.31
6096;BME280;25081;42.698;23.298;2023-03-01T02:56:34;95709.83;;;5.13;88.67
6096;BME280;25081;42.698;23.298;2023-03-01T02:58:45;95704.83;;;5.18;88.75
6096;BME280;25081;42.698;23.298;2023-03-01T03:00:55;95706.05;;;5.07;89.04
6096;BME280;25081;42.698;23.298;2023-03-01T03:03:06;95708.40;;;5.02;89.45
6096;BME280;25081;42.698;23.298;2023-03-01T03:05:17;95703.05;;;5.10;89.08
6096;BME280;25081;42.698;23.298;2023-03-01T03:07:27;95709.79;;;5.17;89.02
6096;BME280;25081;42.698;23.298;2023-03-01T03:09:37;95700.80;;;4.99;89.57
6096;BME280;25081;42.698;23.298;2023-03-01T03:11:48;95699.19;;;4.90;90.55
6096;BME280;25081;42.698;23.298;2023-03-01T03:13:58;95701.00;;;4.94;90.42
6096;BME280;25081;42.698;23.298;2023-03-01T03:16:09;95703.11;;;5.02;90.42
6096;BME280;25081;42.698;23.298;2023-03-01T03:18:19;95717.00;;;4.92;90.36
6096;BME280;25081;42.698;23.298;2023-03-01T03:20:30;95722.28;;;4.96;90.44
6096;BME280;25081;42.698;23.298;2023-03-01T03:22:40;95713.51;;;5.00;90.67
6096;BME280;25081;42.698;23.298;2023-03-01T03:24:51;95709.11;;;4.88;90.91
6096;BME280;25081;42.698;23.298;2023-03-01T03:27:01;95710.22;;;4.98;90.79
6096;BME280;25081;42.698;23.298;2023-03-01T03:29:11;95713.22;;;4.95;90.81
6096;BME280;25081;42.698;23.298;2023-03-01T03:31:22;95712.86;;;4.98;90.55
6096;BME280;25081;42.698;23.298;2023-03-01T03:33:32;95715.53;;;4.89;90.85
6096;BME280;25081;42.698;23.298;2023-03-01T03:35:43;95712.04;;;4.97;90.92
6096;BME280;25081;42.698;23.298;2023-03-01T03:37:54;95718.29;;;5.04;90.60
6096;BME280;25081;42.698;23.298;2023-03-01T03:40:14;95716.83;;;4.98;90.63
6096;BME280;25081;42.698;23.298;2023-03-01T03:42:25;95719.97;;;4.97;90.49
6096;BME280;25081;42.698;23.298;2023-03-01T03:44:35;95727.45;;;4.85;91.07
6096;BME280;25081;42.698;23.298;2023-03-01T03:46:46;95726.92;;;4.94;90.79
6096;BME280;25081;42.698;23.298;2023-03-01T03:48:56;95717.70;;;4.86;90.75
6096;BME280;25081;42.698;23.298;2023-03-01T03:51:09;95725.11;;;4.91;90.61
6096;BME280;25081;42.698;23.298;2023-03-01T03:53:17;95722.28;;;4.96;90.40
6096;BME280;25081;42.698;23.298;2023-03-01T03:55:28;95733.70;;;4.88;90.70
6096;BME280;25081;42.698;23.298;2023-03-01T03:57:39;95736.02;;;4.87;90.76
6096;BME280;25081;42.698;23.298;2023-03-01T03:59:49;95728.27;;;4.86;90.85
6096;BME280;25081;42.698;23.298;2023-03-01T04:01:59;95726.78;;;4.87;91.13
6096;BME280;25081;42.698;23.298;2023-03-01T04:04:10;95733.91;;;4.83;91.25
6096;BME280;25081;42.698;23.298;2023-03-01T04:06:20;95725.02;;;4.76;91.37
6096;BME280;25081;42.698;23.298;2023-03-01T04:08:31;95723.20;;;4.76;91.69
6096;BME280;25081;42.698;23.298;2023-03-01T04:10:42;95725.13;;;4.82;91.62
6096;BME280;25081;42.698;23.298;2023-03-01T04:12:52;95728.13;;;4.83;91.30
6096;BME280;25081;42.698;23.298;2023-03-01T04:15:03;95734.73;;;4.83;91.36
6096;BME280;25081;42.698;23.298;2023-03-01T04:17:13;95728.59;;;4.87;91.40
6096;BME280;25081;42.698;23.298;2023-03-01T04:19:24;95734.50;;;4.97;91.08
6096;BME280;25081;42.698;23.298;2023-03-01T04:21:34;95737.17;;;4.93;91.03
6096;BME280;25081;42.698;23.298;2023-03-01T04:23:45;95736.88;;;4.84;91.13
6096;BME280;25081;42.698;23.298;2023-03-01T04:25:56;95735.67;;;4.91;91.14
6096;BME280;25081;42.698;23.298;2023-03-01T04:28:06;95730.06;;;4.89;91.18
6096;BME280;25081;42.698;23.298;2023-03-01T04:30:17;95736.08;;;4.75;91.37
6096;BME280;25081;42.698;23.298;2023-03-01T04:32:27;95730.14;;;4.69;91.88
6096;BME280;25081;42.698;23.298;2023-03-01T04:34:38;95726.48;;;4.78;92.02
6096;BME280;25081;42.698;23.298;2023-03-01T04:36:48;95729.97;;;4.71;92.08
6096;BME280;25081;42.698;23.298;2023-03-01T04:38:59;95737.22;;;4.73;91.91
6096;BME280;25081;42.698;23.298;2023-03-01T04:41:10;95729.97;;;4.75;92.18
6096;BME280;25081;42.698;23.298;2023-03-01T04:43:20;95730.47;;;4.74;92.11
6096;BME280;25081;42.698;23.298;2023-03-01T04:45:30;95721.11;;;4.64;92.31
6096;BME280;25081;42.698;23.298;2023-03-01T04:47:41;95721.30;;;4.54;92.76
6096;BME280;25081;42.698;23.298;2023-03-01T04:49:52;95727.23;;;4.56;92.80
6096;BME280;25081;42.698;23.298;2023-03-01T04:52:02;95727.23;;;4.56;92.72
6096;BME280;25081;42.698;23.298;2023-03-01T04:54:13;95725.41;;;4.52;93.15
6096;BME280;25081;42.698;23.298;2023-03-01T04:56:23;95720.97;;;4.49;93.49
6096;BME280;25081;42.698;23.298;2023-03-01T04:58:34;95720.50;;;4.45;93.58
6096;BME280;25081;42.698;23.298;2023-03-01T05:00:44;95715.52;;;4.54;93.64
6096;BME280;25081;42.698;23.298;2023-03-01T05:02:55;95719.45;;;4.58;92.89
6096;BME280;25081;42.698;23.298;2023-03-01T05:05:06;95724.45;;;4.45;93.23
6096;BME280;25081;42.698;23.298;2023-03-01T05:07:17;95721.44;;;4.52;93.67
6096;BME280;25081;42.698;23.298;2023-03-01T05:09:28;95723.73;;;4.59;93.21
6096;BME280;25081;42.698;23.298;2023-03-01T05:11:38;95723.72;;;4.68;92.59
6096;BME280;25081;42.698;23.298;2023-03-01T05:13:48;95721.62;;;4.55;93.26
6096;BME280;25081;42.698;23.298;2023-03-01T05:16:00;95729.22;;;4.54;93.36
6096;BME280;25081;42.698;23.298;2023-03-01T05:18:10;95722.11;;;4.50;93.67
6096;BME280;25081;42.698;23.298;2023-03-01T05:20:20;95724.91;;;4.53;93.66
6096;BME280;25081;42.698;23.298;2023-03-01T05:22:32;95724.91;;;4.57;93.50
6096;BME280;25081;42.698;23.298;2023-03-01T05:24:43;95727.86;;;4.66;93.13
6096;BME280;25081;42.698;23.298;2023-03-01T05:26:53;95726.39;;;4.64;92.96
6096;BME280;25081;42.698;23.298;2023-03-01T05:29:04;95738.59;;;4.65;92.93
6096;BME280;25081;42.698;23.298;2023-03-01T05:31:14;95730.48;;;4.62;93.43
6096;BME280;25081;42.698;23.298;2023-03-01T05:33:25;95725.89;;;4.64;93.04
6096;BME280;25081;42.698;23.298;2023-03-01T05:35:35;95733.64;;;4.53;93.28
6096;BME280;25081;42.698;23.298;2023-03-01T05:37:46;95732.33;;;4.53;93.33
6096;BME280;25081;42.698;23.298;2023-03-01T05:39:56;95726.91;;;4.55;93.40
6096;BME280;25081;42.698;23.298;2023-03-01T05:42:09;95736.80;;;4.57;93.04
6096;BME280;25081;42.698;23.298;2023-03-01T05:44:19;95728.88;;;4.57;93.15
6096;BME280;25081;42.698;23.298;2023-03-01T05:46:29;95734.50;;;4.54;93.24
6096;BME280;25081;42.698;23.298;2023-03-01T05:48:40;95741.25;;;4.52;93.46
6096;BME280;25081;42.698;23.298;2023-03-01T05:50:50;95740.45;;;4.48;93.66
6096;BME280;25081;42.698;23.298;2023-03-01T05:53:01;95736.33;;;4.41;93.97
6096;BME280;25081;42.698;23.298;2023-03-01T05:55:11;95740.61;;;4.42;93.99
6096;BME280;25081;42.698;23.298;2023-03-01T05:57:22;95749.34;;;4.51;94.08
6096;BME280;25081;42.698;23.298;2023-03-01T05:59:33;95763.05;;;4.46;94.15
6096;BME280;25081;42.698;23.298;2023-03-01T06:01:43;95755.63;;;4.46;93.75
6096;BME280;25081;42.698;23.298;2023-03-01T06:03:54;95749.38;;;4.39;94.06
6096;BME280;25081;42.698;23.298;2023-03-01T06:06:05;95748.04;;;4.47;93.83
6096;BME280;25081;42.698;23.298;2023-03-01T06:08:15;95758.27;;;4.42;93.79
6096;BME280;25081;42.698;23.298;2023-03-01T06:10:26;95762.88;;;4.48;93.72
6096;BME280;25081;42.698;23.298;2023-03-01T06:12:37;95764.05;;;4.45;93.92
6096;BME280;25081;42.698;23.298;2023-03-01T06:14:47;95767.69;;;4.44;93.82
6096;BME280;25081;42.698;23.298;2023-03-01T06:16:58;95766.70;;;4.37;93.72
6096;BME280;25081;42.698;23.298;2023-03-01T06:19:08;95767.49;;;4.50;93.57
6096;BME280;25081;42.698;23.298;2023-03-01T06:21:19;95771.44;;;4.58;93.18
6096;BME280;25081;42.698;23.298;2023-03-01T06:23:29;95772.91;;;4.60;92.92
6096;BME280;25081;42.698;23.298;2023-03-01T06:25:40;95767.80;;;4.59;93.01
6096;BME280;25081;42.698;23.298;2023-03-01T06:27:50;95767.16;;;4.57;92.74
6096;BME280;25081;42.698;23.298;2023-03-01T06:30:02;95770.58;;;4.70;92.70
6096;BME280;25081;42.698;23.298;2023-03-01T06:32:13;95765.15;;;4.67;92.28
6096;BME280;25081;42.698;23.298;2023-03-01T06:34:23;95768.09;;;4.76;92.14
6096;BME280;25081;42.698;23.298;2023-03-01T06:36:34;95771.16;;;4.92;91.72
6096;BME280;25081;42.698;23.298;2023-03-01T06:38:44;95787.52;;;4.96;91.24
6096;BME280;25081;42.698;23.298;2023-03-01T06:43:14;95772.55;;;4.76;92.54
6096;BME280;25081;42.698;23.298;2023-03-01T06:45:25;95778.96;;;4.85;91.94
6096;BME280;25081;42.698;23.298;2023-03-01T06:47:35;95776.99;;;4.83;91.10
6096;BME280;25081;42.698;23.298;2023-03-01T06:49:45;95765.32;;;4.66;91.47
6096;BME280;25081;42.698;23.298;2023-03-01T06:51:56;95770.75;;;4.68;91.34
6096;BME280;25081;42.698;23.298;2023-03-01T06:54:07;95773.39;;;4.68;91.71
6096;BME280;25081;42.698;23.298;2023-03-01T06:56:17;95767.93;;;5.21;90.00
6096;BME280;25081;42.698;23.298;2023-03-01T06:58:27;95773.16;;;4.90;89.92
6096;BME280;25081;42.698;23.298;2023-03-01T07:00:38;95770.11;;;5.09;90.17
6096;BME280;25081;42.698;23.298;2023-03-01T07:02:49;95780.30;;;4.77;90.48
6096;BME280;25081;42.698;23.298;2023-03-01T07:04:59;95776.36;;;4.73;90.56
6096;BME280;25081;42.698;23.298;2023-03-01T07:07:10;95774.06;;;4.66;91.14
6096;BME280;25081;42.698;23.298;2023-03-01T07:09:20;95778.22;;;4.56;91.57
6096;BME280;25081;42.698;23.298;2023-03-01T07:11:31;95772.55;;;4.76;91.61
6096;BME280;25081;42.698;23.298;2023-03-01T07:13:42;95778.56;;;5.01;90.39
6096;BME280;25081;42.698;23.298;2023-03-01T07:15:52;95780.38;;;5.00;89.67
6096;BME280;25081;42.698;23.298;2023-03-01T07:18:03;95767.81;;;5.06;89.65
6096;BME280;25081;42.698;23.298;2023-03-01T07:20:14;95772.07;;;5.11;89.08
6096;BME280;25081;42.698;23.298;2023-03-01T07:22:24;95772.95;;;5.04;89.88
6096;BME280;25081;42.698;23.298;2023-03-01T07:24:35;95759.33;;;5.23;89.17
6096;BME280;25081;42.698;23.298;2023-03-01T07:26:49;95766.08;;;5.26;88.68
6096;BME280;25081;42.698;23.298;2023-03-01T07:29:01;95757.47;;;5.32;87.80
6096;BME280;25081;42.698;23.298;2023-03-01T07:31:11;95756.19;;;5.20;88.36
6096;BME280;25081;42.698;23.298;2023-03-01T07:33:21;95755.03;;;5.22;88.45
6096;BME280;25081;42.698;23.298;2023-03-01T07:35:32;95752.08;;;5.17;88.60
6096;BME280;25081;42.698;23.298;2023-03-01T07:37:42;95761.11;;;5.27;88.19
6096;BME280;25081;42.698;23.298;2023-03-01T07:39:53;95760.11;;;5.32;87.50
6096;BME280;25081;42.698;23.298;2023-03-01T07:42:03;95753.33;;;5.33;87.88
6096;BME280;25081;42.698;23.298;2023-03-01T07:44:14;95757.84;;;5.52;87.08
6096;BME280;25081;42.698;23.298;2023-03-01T07:46:24;95755.84;;;5.54;86.78
6096;BME280;25081;42.698;23.298;2023-03-01T07:48:35;95757.66;;;5.53;86.76
6096;BME280;25081;42.698;23.298;2023-03-01T07:50:45;95755.25;;;5.70;86.71
6096;BME280;25081;42.698;23.298;2023-03-01T07:52:56;95750.09;;;5.73;86.11
6096;BME280;25081;42.698;23.298;2023-03-01T07:55:08;95748.20;;;6.09;84.27
6096;BME280;25081;42.698;23.298;2023-03-01T07:57:18;95755.03;;;6.22;83.48
6096;BME280;25081;42.698;23.298;2023-03-01T07:59:29;95742.25;;;5.84;83.56
6096;BME280;25081;42.698;23.298;2023-03-01T08:01:40;95751.42;;;5.73;84.71
6096;BME280;25081;42.698;23.298;2023-03-01T08:03:50;95738.38;;;5.71;84.95
6096;BME280;25081;42.698;23.298;2023-03-01T08:06:01;95733.77;;;5.88;83.71
6096;BME280;25081;42.698;23.298;2023-03-01T08:08:12;95747.55;;;6.25;82.38
6096;BME280;25081;42.698;23.298;2023-03-01T08:10:22;95732.21;;;6.21;81.41
6096;BME280;25081;42.698;23.298;2023-03-01T08:12:32;95742.66;;;6.18;81.73
6096;BME280;25081;42.698;23.298;2023-03-01T08:14:43;95732.23;;;6.17;81.86
6096;BME280;25081;42.698;23.298;2023-03-01T08:16:53;95738.23;;;5.88;82.59
6096;BME280;25081;42.698;23.298;2023-03-01T08:19:06;95730.95;;;5.94;82.93
6096;BME280;25081;42.698;23.298;2023-03-01T08:21:17;95728.09;;;6.37;81.75
6096;BME280;25081;42.698;23.298;2023-03-01T08:23:26;95736.13;;;6.25;80.98
6096;BME280;25081;42.698;23.298;2023-03-01T08:25:37;95728.23;;;6.40;80.66
6096;BME280;25081;42.698;23.298;2023-03-01T08:27:47;95732.63;;;6.47;80.26
6096;BME280;25081;42.698;23.298;2023-03-01T08:29:58;95727.41;;;6.54;80.09
6096;BME280;25081;42.698;23.298;2023-03-01T08:32:08;95732.58;;;6.18;81.37
6096;BME280;25081;42.698;23.298;2023-03-01T08:34:19;95731.16;;;6.26;81.12
6096;BME280;25081;42.698;23.298;2023-03-01T08:36:30;95721.94;;;6.22;80.91
6096;BME280;25081;42.698;23.298;2023-03-01T08:38:40;95731.09;;;6.15;80.80
6096;BME280;25081;42.698;23.298;2023-03-01T08:40:50;95730.84;;;6.06;82.23
6096;BME280;25081;42.698;23.298;2023-03-01T08:43:01;95731.14;;;6.11;81.95
6096;BME280;25081;42.698;23.298;2023-03-01T08:45:12;95733.84;;;6.41;80.62
6096;BME280;25081;42.698;23.298;2023-03-01T08:47:23;95733.23;;;6.16;81.27
6096;BME280;25081;42.698;23.298;2023-03-01T08:49:34;95733.02;;;6.40;80.88
6096;BME280;25081;42.698;23.298;2023-03-01T08:51:44;95730.55;;;6.53;79.98
6096;BME280;25081;42.698;23.298;2023-03-01T08:53:54;95726.61;;;6.68;79.70
6096;BME280;25081;42.698;23.298;2023-03-01T08:56:07;95727.00;;;6.61;79.44
6096;BME280;25081;42.698;23.298;2023-03-01T08:58:17;95726.38;;;6.59;79.46
6096;BME280;25081;42.698;23.298;2023-03-01T09:02:47;95727.41;;;6.54;78.78
6096;BME280;25081;42.698;23.298;2023-03-01T09:05:01;95743.42;;;6.42;78.21
6096;BME280;25081;42.698;23.298;2023-03-01T09:07:10;95742.66;;;6.18;78.82
6096;BME280;25081;42.698;23.298;2023-03-01T09:09:20;95741.16;;;6.20;78.61
6096;BME280;25081;42.698;23.298;2023-03-01T09:11:30;95721.66;;;6.50;78.52
6096;BME280;25081;42.698;23.298;2023-03-01T09:13:44;95725.17;;;7.06;76.21
6096;BME280;25081;42.698;23.298;2023-03-01T09:15:55;95717.94;;;6.85;75.48
6096;BME280;25081;42.698;23.298;2023-03-01T09:18:06;95731.06;;;6.82;76.80
6096;BME280;25081;42.698;23.298;2023-03-01T09:20:17;95742.39;;;6.62;76.40
6096;BME280;25081;42.698;23.298;2023-03-01T09:22:27;95726.66;;;6.45;77.13
6096;BME280;25081;42.698;23.298;2023-03-01T09:24:38;95717.36;;;7.19;75.63
6096;BME280;25081;42.698;23.298;2023-03-01T09:26:49;95721.19;;;7.42;73.29
6096;BME280;25081;42.698;23.298;2023-03-01T09:29:00;95718.53;;;7.42;73.42
6096;BME280;25081;42.698;23.298;2023-03-01T09:31:13;95724.79;;;7.09;74.36
6096;BME280;25081;42.698;23.298;2023-03-01T09:33:23;95723.38;;;7.02;75.12
6096;BME280;25081;42.698;23.298;2023-03-01T09:35:34;95726.48;;;7.31;74.41
6096;BME280;25081;42.698;23.298;2023-03-01T09:37:44;95718.22;;;6.75;75.63
6096;BME280;25081;42.698;23.298;2023-03-01T09:39:54;95723.77;;;6.70;77.27
6096;BME280;25081;42.698;23.298;2023-03-01T09:42:05;95708.73;;;6.96;75.83
6096;BME280;25081;42.698;23.298;2023-03-01T09:44:23;95719.61;;;7.37;75.35
6096;BME280;25081;42.698;23.298;2023-03-01T09:46:33;95710.30;;;7.01;76.20
6096;BME280;25081;42.698;23.298;2023-03-01T09:48:44;95709.64;;;7.13;75.61
6096;BME280;25081;42.698;23.298;2023-03-01T09:50:53;95708.77;;;6.92;76.72
6096;BME280;25081;42.698;23.298;2023-03-01T09:53:05;95706.66;;;7.27;75.87
6096;BME280;25081;42.698;23.298;2023-03-01T09:55:15;95701.77;;;7.56;74.32
6096;BME280;25081;42.698;23.298;2023-03-01T09:57:30;95703.62;;;7.30;75.51
6096;BME280;25081;42.698;23.298;2023-03-01T09:59:49;95688.58;;;7.63;74.31
6096;BME280;25081;42.698;23.298;2023-03-01T10:01:59;95684.96;;;7.92;72.45
6096;BME280;25081;42.698;23.298;2023-03-01T10:04:23;95693.30;;;7.67;72.63
6096;BME280;25081;42.698;23.298;2023-03-01T10:06:31;95684.24;;;7.04;75.47
6096;BME280;25081;42.698;23.298;2023-03-01T10:08:43;95677.98;;;7.16;75.28
6096;BME280;25081;42.698;23.298;2023-03-01T10:10:53;95684.71;;;7.55;73.51
6096;BME280;25081;42.698;23.298;2023-03-01T10:13:06;95686.47;;;7.69;73.32
6096;BME280;25081;42.698;23.298;2023-03-01T10:15:15;95695.56;;;7.70;72.28
6096;BME280;25081;42.698;23.298;2023-03-01T10:17:27;95689.21;;;7.18;73.89
6096;BME280;25081;42.698;23.298;2023-03-01T10:19:39;95680.11;;;7.63;72.97
6096;BME280;25081;42.698;23.298;2023-03-01T10:21:49;95680.83;;;8.11;71.70
6096;BME280;25081;42.698;23.298;2023-03-01T10:24:01;95683.63;;;7.92;71.64
6096;BME280;25081;42.698;23.298;2023-03-01T10:26:17;95686.03;;;7.44;73.00
6096;BME280;25081;42.698;23.298;2023-03-01T10:28:29;95676.09;;;7.42;74.04
6096;BME280;25081;42.698;23.298;2023-03-01T10:30:39;95669.16;;;7.52;73.71
6096;BME280;25081;42.698;23.298;2023-03-01T10:32:49;95664.16;;;7.53;73.80
6096;BME280;25081;42.698;23.298;2023-03-01T10:34:59;95668.70;;;7.80;72.67
6096;BME280;25081;42.698;23.298;2023-03-01T10:37:12;95543.00;;;6.78;73.21
6096;BME280;25081;42.698;23.298;2023-03-01T10:39:22;95662.40;;;7.92;72.14
6096;BME280;25081;42.698;23.298;2023-03-01T10:41:32;95670.98;;;7.62;73.06
6096;BME280;25081;42.698;23.298;2023-03-01T10:43:44;95662.59;;;7.37;74.32
6096;BME280;25081;42.698;23.298;2023-03-01T10:45:54;95665.89;;;7.13;74.24
6096;BME280;25081;42.698;23.298;2023-03-01T10:48:15;95668.64;;;7.52;73.54
6096;BME280;25081;42.698;23.298;2023-03-01T10:50:25;95663.07;;;7.90;72.91
6096;BME280;25081;42.698;23.298;2023-03-01T10:52:36;95662.40;;;7.92;71.99
6096;BME280;25081;42.698;23.298;2023-03-01T10:54:52;95662.02;;;8.23;70.47
6096;BME280;25081;42.698;23.298;2023-03-01T10:57:03;95657.74;;;8.00;71.12
6096;BME280;25081;42.698;23.298;2023-03-01T10:59:19;95654.50;;;8.16;70.63
6096;BME280;25081;42.698;23.298;2023-03-01T11:01:29;95660.89;;;8.21;70.05
6096;BME280;25081;42.698;23.298;2023-03-01T11:06:08;95667.58;;;7.68;72.43
6096;BME280;25081;42.698;23.298;2023-03-01T11:08:25;95662.72;;;8.10;70.31
6096;BME280;25081;42.698;23.298;2023-03-01T11:10:27;95672.88;;;7.25;71.80
6096;BME280;25081;42.698;23.298;2023-03-01T11:12:36;95671.91;;;7.22;73.06
6096;BME280;25081;42.698;23.298;2023-03-01T11:14:50;95684.70;;;7.44;72.58
6096;BME280;25081;42.698;23.298;2023-03-01T11:17:01;95663.30;;;7.45;72.47
6096;BME280;25081;42.698;23.298;2023-03-01T11:19:30;95655.17;;;7.96;71.09
6096;BME280;25081;42.698;23.298;2023-03-01T11:21:41;95653.80;;;7.79;71.62
6096;BME280;25081;42.698;23.298;2023-03-01T11:23:50;95652.09;;;7.71;72.27
6096;BME280;25081;42.698;23.298;2023-03-01T11:26:04;95649.59;;;7.74;72.04
6096;BME280;25081;42.698;23.298;2023-03-01T11:28:12;95662.33;;;7.85;72.06
6096;BME280;25081;42.698;23.298;2023-03-01T11:30:23;95643.45;;;7.73;72.12
6096;BME280;25081;42.698;23.298;2023-03-01T11:32:34;95648.02;;;8.25;70.25
6096;BME280;25081;42.698;23.298;2023-03-01T11:34:45;95637.80;;;7.94;70.87
6096;BME280;25081;42.698;23.298;2023-03-01T11:36:56;95650.50;;;7.88;71.71
6096;BME280;25081;42.698;23.298;2023-03-01T11:39:11;95642.44;;;7.74;71.57
6096;BME280;25081;42.698;23.298;2023-03-01T11:41:19;95644.64;;;7.60;72.02
6096;BME280;25081;42.698;23.298;2023-03-01T11:43:32;95635.49;;;7.73;72.29
6096;BME280;25081;42.698;23.298;2023-03-01T11:45:46;95630.86;;;7.71;72.17
6096;BME280;25081;42.698;23.298;2023-03-01T11:48:05;95628.68;;;7.64;72.58
6096;BME280;25081;42.698;23.298;2023-03-01T11:50:20;95624.95;;;7.97;71.73